createdAt,value
2019-03-06T00:02:43.836Z,97412.00
2019-03-06T00:06:58.191Z,97406.00
2019-03-06T00:11:12.687Z,97396.00
2019-03-06T00:15:27.110Z,97382.00
2019-03-06T00:19:41.505Z,97386.00
2019-03-06T00:23:56.224Z,97375.00
2019-03-06T00:28:10.717Z,97365.00
2019-03-06T00:32:25.110Z,97357.00
2019-03-06T00:36:39.578Z,97368.00
2019-03-06T00:41:00.526Z,97366.00
2019-03-06T00:45:21.471Z,97378.00
2019-03-06T00:49:42.294Z,97372.00
2019-03-06T00:53:56.783Z,97376.00
2019-03-06T00:57:57.980Z,97363.00
2019-03-06T01:02:18.750Z,97363.00
2019-03-06T01:06:39.695Z,97354.00
2019-03-06T01:11:00.424Z,97356.00
2019-03-06T01:15:21.176Z,97352.00
2019-03-06T01:19:42.240Z,97341.00
2019-03-06T01:24:03.155Z,97343.00
2019-03-06T01:28:23.980Z,97331.00
2019-03-06T01:37:33.386Z,97337.00
2019-03-06T01:46:23.765Z,97345.00
2019-03-06T01:50:44.623Z,97328.00
2019-03-06T01:54:59.228Z,97322.00
2019-03-06T01:59:13.948Z,97321.00
2019-03-06T02:03:28.511Z,97323.00
2019-03-06T02:07:29.583Z,97309.00
2019-03-06T02:11:30.437Z,97311.00
2019-03-06T02:15:51.295Z,97306.00
2019-03-06T02:20:33.795Z,97311.00
2019-03-06T02:24:54.639Z,97305.00
2019-03-06T02:29:15.409Z,97303.00
2019-03-06T02:33:36.165Z,97296.00
2019-03-06T02:37:57.148Z,97282.00
2019-03-06T02:42:18.039Z,97275.00
2019-03-06T02:46:39.157Z,97268.00
2019-03-06T02:50:59.884Z,97243.00
2019-03-06T02:55:14.439Z,97236.00
2019-03-06T03:04:17.575Z,97252.00
2019-03-06T03:08:38.404Z,97254.00
2019-03-06T03:12:59.158Z,97236.00
2019-03-06T03:17:00.204Z,97223.00
2019-03-06T03:21:20.966Z,97215.00
2019-03-06T03:25:41.913Z,97230.00
2019-03-06T03:30:24.560Z,97002.00
2019-03-06T03:34:45.360Z,97221.00
2019-03-06T03:39:06.372Z,97230.00
2019-03-06T03:43:27.110Z,97226.00
2019-03-06T03:47:48.053Z,97214.00
2019-03-06T03:52:01.779Z,97208.00
2019-03-06T03:56:16.506Z,97196.00
2019-03-06T04:00:31.391Z,97204.00
2019-03-06T04:04:32.362Z,97194.00
2019-03-06T04:08:53.115Z,97208.00
2019-03-06T04:13:13.973Z,97200.00
2019-03-06T04:17:34.803Z,97180.00
2019-03-06T04:21:55.638Z,97186.00
2019-03-06T04:26:16.667Z,97174.00
2019-03-06T04:30:37.409Z,97175.00
2019-03-06T04:34:58.355Z,97177.00
2019-03-06T04:39:19.191Z,97172.00
2019-03-06T04:43:40.017Z,97171.00
2019-03-06T04:48:00.898Z,97161.00
2019-03-06T04:52:15.787Z,97144.00
2019-03-06T04:56:29.798Z,97139.00
2019-03-06T05:00:30.902Z,97137.00
2019-03-06T05:04:51.652Z,97132.00
2019-03-06T05:09:12.516Z,97134.00
2019-03-06T05:13:33.240Z,97120.00
2019-03-06T05:18:13.834Z,97135.00
2019-03-06T05:22:34.738Z,97149.00
2019-03-06T05:26:55.594Z,97163.00
2019-03-06T05:31:16.325Z,97133.00
2019-03-06T05:35:56.946Z,97126.00
2019-03-06T05:40:17.806Z,97118.00
2019-03-06T05:44:38.536Z,97112.00
2019-03-06T05:48:59.366Z,97093.00
2019-03-06T05:53:00.383Z,97093.00
2019-03-06T05:57:21.226Z,97093.00
2019-03-06T06:01:41.949Z,97089.00
2019-03-06T06:05:42.833Z,97092.00
2019-03-06T06:10:05.001Z,97088.00
2019-03-06T06:14:25.757Z,97090.00
2019-03-06T06:18:46.531Z,97077.00
2019-03-06T06:23:27.254Z,97065.00
2019-03-06T06:27:48.117Z,97077.00
2019-03-06T06:32:08.888Z,97061.00
2019-03-06T06:36:29.752Z,97059.00
2019-03-06T06:40:50.498Z,97068.00
2019-03-06T06:45:12.346Z,97060.00
2019-03-06T06:49:33.096Z,97055.00
2019-03-06T06:53:47.733Z,97056.00
2019-03-06T06:58:02.260Z,97057.00
2019-03-06T07:06:47.315Z,97028.00
2019-03-06T07:11:03.966Z,97031.00
2019-03-06T07:15:20.576Z,97035.00
2019-03-06T07:28:34.507Z,97028.00
2019-03-06T07:32:50.986Z,97027.00
2019-03-06T07:37:07.752Z,97021.00
2019-03-06T07:41:24.402Z,97026.00
2019-03-06T07:45:43.629Z,97019.00
2019-03-06T07:50:02.377Z,97021.00
2019-03-06T07:54:21.013Z,97022.00
2019-03-06T07:58:34.945Z,97020.00
2019-03-06T08:02:57.404Z,97005.00
2019-03-06T08:07:18.151Z,97010.00
2019-03-06T08:20:56.179Z,96988.00
2019-03-06T08:25:37.023Z,96985.00
2019-03-06T08:29:57.929Z,96980.00
2019-03-06T08:34:18.826Z,96975.00
2019-03-06T08:38:39.969Z,96982.00
2019-03-06T08:43:00.721Z,96963.00
2019-03-06T08:52:10.251Z,96967.00
2019-03-06T08:56:29.755Z,96959.00
2019-03-06T09:01:04.506Z,96953.00
2019-03-06T09:09:49.776Z,96946.00
2019-03-06T09:14:24.354Z,96924.00
2019-03-06T09:18:58.044Z,96923.00
2019-03-06T09:23:31.795Z,96909.00
2019-03-06T09:28:06.241Z,96911.00
2019-03-06T09:32:40.011Z,96903.00
2019-03-06T09:37:13.781Z,96897.00
2019-03-06T09:41:29.844Z,96869.00
2019-03-06T09:50:19.589Z,96868.00
2019-03-06T09:54:55.105Z,96867.00
2019-03-06T09:59:29.565Z,96864.00
2019-03-06T10:04:03.421Z,96859.00
2019-03-06T10:08:19.335Z,96837.00
2019-03-06T10:12:36.014Z,96839.00
2019-03-06T10:16:52.399Z,96835.00
2019-03-06T10:21:07.066Z,96828.00
2019-03-06T10:25:29.742Z,96832.00
2019-03-06T10:29:37.605Z,96822.00
2019-03-06T10:33:51.608Z,96814.00
2019-03-06T10:37:52.752Z,96812.00
2019-03-06T10:42:13.703Z,96803.00
2019-03-06T10:46:14.871Z,96800.00
2019-03-06T10:50:35.712Z,96794.00
2019-03-06T10:54:50.226Z,96778.00
2019-03-06T10:59:05.038Z,96761.00
2019-03-06T11:03:19.687Z,96763.00
2019-03-06T11:07:34.088Z,96753.00
2019-03-06T11:11:48.877Z,96750.00
2019-03-06T11:16:03.544Z,96741.00
2019-03-06T11:20:26.281Z,96729.00
2019-03-06T11:24:48.989Z,96715.00
2019-03-06T11:29:10.105Z,96714.00
2019-03-06T11:33:31.048Z,96697.00
2019-03-06T11:37:51.984Z,96697.00
2019-03-06T11:42:12.895Z,96696.00
2019-03-06T11:46:33.760Z,96679.00
2019-03-06T11:50:54.724Z,96663.00
2019-03-06T11:55:09.715Z,96675.00
2019-03-06T11:59:10.990Z,96679.00
2019-03-06T12:03:31.753Z,96667.00
2019-03-06T12:07:52.563Z,96669.00
2019-03-06T12:12:13.628Z,96669.00
2019-03-06T12:16:41.617Z,96667.00
2019-03-06T12:20:57.167Z,96650.00
2019-03-06T12:25:17.990Z,96651.00
2019-03-06T12:29:38.967Z,96640.00
2019-03-06T12:33:59.834Z,96640.00
2019-03-06T12:38:20.885Z,96623.00
2019-03-06T12:42:41.754Z,96613.00
2019-03-06T12:47:02.687Z,96609.00
2019-03-06T12:51:23.598Z,96610.00
2019-03-06T12:55:37.870Z,96591.00
2019-03-06T12:59:52.344Z,96576.00
2019-03-06T13:03:53.430Z,96570.00
2019-03-06T13:08:19.661Z,96562.00
2019-03-06T13:12:38.232Z,96543.00
2019-03-06T13:16:59.918Z,96535.00
2019-03-06T13:21:20.767Z,96527.00
2019-03-06T13:26:09.995Z,96516.00
2019-03-06T13:30:27.015Z,96514.00
2019-03-06T13:34:51.515Z,96522.00
2019-03-06T13:38:54.926Z,96511.00
2019-03-06T13:43:13.820Z,96512.00
2019-03-06T13:47:34.857Z,96496.00
2019-03-06T13:51:55.765Z,96498.00
2019-03-06T13:56:09.698Z,96501.00
2019-03-06T14:00:24.247Z,96511.00
2019-03-06T14:04:38.844Z,96506.00
2019-03-06T14:08:53.463Z,96514.00
2019-03-06T14:12:54.481Z,96498.00
2019-03-06T14:17:15.409Z,96474.00
2019-03-06T14:21:36.555Z,96454.00
2019-03-06T14:25:57.497Z,96465.00
2019-03-06T14:30:40.118Z,96474.00
2019-03-06T14:35:01.022Z,96465.00
2019-03-06T14:39:43.663Z,96452.00
2019-03-06T14:44:04.504Z,96446.00
2019-03-06T14:48:25.507Z,96450.00
2019-03-06T14:52:46.475Z,96441.00
2019-03-06T14:57:00.899Z,96430.00
2019-03-06T15:01:15.633Z,96435.00
2019-03-06T15:05:30.480Z,96431.00
2019-03-06T15:09:45.290Z,96433.00
2019-03-06T15:13:59.792Z,96432.00
2019-03-06T15:18:10.145Z,96422.00
2019-03-06T15:22:23.554Z,96416.00
2019-03-06T15:31:06.259Z,96409.00
2019-03-06T15:35:08.991Z,96407.00
2019-03-06T15:39:19.830Z,96402.00
2019-03-06T15:43:21.517Z,96390.00
2019-03-06T15:47:22.715Z,96389.00
2019-03-06T15:51:23.674Z,96394.00
2019-03-06T15:55:27.083Z,96393.00
2019-03-06T15:59:28.284Z,96385.00
2019-03-06T16:03:29.299Z,96387.00
2019-03-06T16:07:30.369Z,96376.00
2019-03-06T16:11:31.374Z,96363.00
2019-03-06T16:15:32.553Z,96373.00
2019-03-06T16:19:33.855Z,96367.00
2019-03-06T16:23:34.948Z,96369.00
2019-03-06T16:27:36.024Z,96369.00
2019-03-06T16:31:37.133Z,96368.00
2019-03-06T16:35:38.263Z,96358.00
2019-03-06T16:39:39.286Z,96354.00
2019-03-06T16:43:40.390Z,96364.00
2019-03-06T16:47:41.365Z,96369.00
2019-03-06T16:51:42.363Z,96375.00
2019-03-06T16:55:43.688Z,96386.00
2019-03-06T16:59:44.694Z,96376.00
2019-03-06T17:03:45.942Z,96369.00
2019-03-06T17:07:49.024Z,96371.00
2019-03-06T17:11:50.312Z,96368.00
2019-03-06T17:15:51.612Z,96369.00
2019-03-06T17:19:52.735Z,96373.00
2019-03-06T17:23:53.822Z,96388.00
2019-03-06T17:27:55.011Z,96383.00
2019-03-06T17:31:56.139Z,96394.00
2019-03-06T17:35:57.422Z,96389.00
2019-03-06T17:39:58.400Z,96389.00
2019-03-06T17:43:59.483Z,96389.00
2019-03-06T17:48:00.943Z,96387.00
2019-03-06T17:52:02.352Z,96400.00
2019-03-06T17:56:03.597Z,96399.00
2019-03-06T18:00:16.641Z,96398.00
2019-03-06T18:04:13.381Z,96396.00
2019-03-06T18:08:14.463Z,96395.00
2019-03-06T18:12:16.216Z,96392.00
2019-03-06T18:16:17.538Z,96378.00
2019-03-06T18:20:18.736Z,96367.00
2019-03-06T18:24:19.634Z,96367.00
2019-03-06T18:28:20.766Z,96367.00
2019-03-06T18:32:23.610Z,96364.00
2019-03-06T18:36:24.684Z,96364.00
2019-03-06T18:40:26.236Z,96360.00
2019-03-06T18:44:27.228Z,96357.00
2019-03-06T18:48:28.439Z,96348.00
2019-03-06T18:52:29.505Z,96334.00
2019-03-06T18:56:30.515Z,96322.00
2019-03-06T19:00:33.603Z,96299.00
2019-03-06T19:04:34.744Z,96298.00
2019-03-06T19:08:35.728Z,96266.00
2019-03-06T19:12:36.758Z,96257.00
2019-03-06T19:16:38.049Z,96248.00
2019-03-06T19:20:39.160Z,96250.00
2019-03-06T19:24:40.231Z,96263.00
2019-03-06T19:28:41.397Z,96254.00
2019-03-06T19:32:42.405Z,96245.00
2019-03-06T19:36:43.511Z,96252.00
2019-03-06T19:40:44.619Z,96241.00
2019-03-06T19:44:45.822Z,96236.00
2019-03-06T19:48:46.919Z,96239.00
2019-03-06T19:52:48.317Z,96240.00
2019-03-06T19:56:49.536Z,96246.00
2019-03-06T20:00:50.764Z,96241.00
2019-03-06T20:04:51.835Z,96221.00
2019-03-06T20:08:52.781Z,96228.00
2019-03-06T20:12:53.846Z,96227.00
2019-03-06T20:16:54.964Z,96221.00
2019-03-06T20:20:55.925Z,96223.00
2019-03-06T20:24:56.971Z,96211.00
2019-03-06T20:28:58.078Z,96210.00
2019-03-06T20:32:59.293Z,96188.00
2019-03-06T20:37:00.355Z,96194.00
2019-03-06T20:41:01.265Z,96194.00
2019-03-06T20:45:04.826Z,96195.00
2019-03-06T20:49:05.843Z,96188.00
2019-03-06T20:53:06.967Z,96174.00
2019-03-06T20:57:07.955Z,96171.00
2019-03-06T21:01:10.751Z,96169.00
2019-03-06T21:05:12.310Z,96172.00
2019-03-06T21:09:13.319Z,96157.00
2019-03-06T21:13:15.135Z,96160.00
2019-03-06T21:17:17.333Z,96155.00
2019-03-06T21:21:18.518Z,96152.00
2019-03-06T21:25:20.429Z,96151.00
2019-03-06T21:29:21.793Z,96145.00
2019-03-06T21:33:22.758Z,96132.00
2019-03-06T21:37:24.057Z,96136.00
2019-03-06T21:41:25.039Z,96136.00
2019-03-06T21:45:26.113Z,96129.00
2019-03-06T21:49:27.082Z,96124.00
2019-03-06T21:53:28.159Z,96120.00
2019-03-06T21:57:29.161Z,96124.00
2019-03-06T22:01:30.141Z,96131.00
2019-03-06T22:05:31.163Z,96123.00
2019-03-06T22:09:32.228Z,96129.00
2019-03-06T22:13:33.526Z,96134.00
2019-03-06T22:17:34.586Z,96133.00
2019-03-06T22:21:35.675Z,96134.00
2019-03-06T22:25:36.658Z,96134.00
2019-03-06T22:29:37.664Z,96135.00
2019-03-06T22:33:38.819Z,96131.00
2019-03-06T22:37:39.813Z,96125.00
2019-03-06T22:41:40.877Z,96118.00
2019-03-06T22:45:41.755Z,96096.00
2019-03-06T22:49:42.634Z,96082.00
2019-03-06T22:53:43.539Z,96070.00
2019-03-06T22:57:44.638Z,96070.00
2019-03-06T23:01:46.015Z,96055.00
2019-03-06T23:05:47.390Z,96058.00
2019-03-06T23:09:48.412Z,96055.00
2019-03-06T23:13:49.705Z,96052.00
2019-03-06T23:17:50.901Z,96055.00
2019-03-06T23:21:51.997Z,96051.00
2019-03-06T23:25:52.993Z,96042.00
2019-03-06T23:29:54.076Z,96053.00
2019-03-06T23:33:55.158Z,96051.00
2019-03-06T23:37:56.101Z,96048.00
2019-03-06T23:41:57.019Z,96042.00
2019-03-06T23:45:57.956Z,96030.00
2019-03-06T23:49:58.899Z,96030.00
2019-03-06T23:53:59.777Z,96017.00
2019-03-06T23:58:00.779Z,96016.00
